Time;durP1;ratioP1;P1;durP2;ratioP2;P2;SDS_P1;SDS_P2;PMS_P1;PMS_P2;Temp;Humidity;BMP_temperature;BMP_pressure;BME280_temperature;BME280_humidity;BME280_pressure;Samples;Min_cycle;Max_cycle;Signal;HPM_P1;HPM_P2
2023/04/20 00:01:26;;;;;;;;;;;333.00;2329.60;;;;;;5033586;28;19909;-72
2023/04/20 00:03:51;;;;;;;;;;;333.00;2329.60;;;;;;5033634;28;20410;-71
2023/04/20 00:06:17;;;;;;;;;;;333.00;2329.60;;;;;;5033343;28;20453;-72
2023/04/20 00:08:43;;;;;;;;;;;332.80;2329.60;;;;;;5033582;28;20428;-72
2023/04/20 00:11:08;;;;;;;;;;;332.90;2329.60;;;;;;5033265;28;20035;-72
2023/04/20 00:13:34;;;;;;;;;;;332.90;2329.60;;;;;;5033665;28;20389;-72
2023/04/20 00:15:59;;;;;;;;;;;333.00;2329.60;;;;;;5033305;28;19936;-72
2023/04/20 00:18:25;;;;;;;;;;;333.00;2329.60;;;;;;5033430;28;20293;-72
2023/04/20 00:20:50;;;;;;;;;;;333.00;2329.60;;;;;;5033249;28;19912;-72
2023/04/20 00:23:16;;;;;;;;;;;333.00;2329.60;;;;;;5033234;28;19909;-72
2023/04/20 00:25:41;;;;;;;;;;;332.90;2329.60;;;;;;5033250;28;19912;-72
2023/04/20 00:28:07;;;;;;;;;;;332.90;2329.60;;;;;;5033148;28;19949;-71
2023/04/20 00:30:32;;;;;;;;;;;332.90;2329.60;;;;;;5033041;28;20312;-72
2023/04/20 00:32:58;;;;;;;;;;;332.90;2329.60;;;;;;5032312;28;19953;-71
2023/04/20 00:35:24;;;;;;;;;;;332.90;2329.60;;;;;;5033170;28;19905;-73
2023/04/20 00:37:49;;;;;;;;;;;332.90;2329.60;;;;;;5033183;28;20324;-71
2023/04/20 00:40:15;;;;;;;;;;;332.80;2329.60;;;;;;5033037;28;19913;-71
2023/04/20 00:42:41;;;;;;;;;;;332.80;2329.60;;;;;;5030354;28;19959;-71
2023/04/20 00:45:07;;;;;;;;;;;308.10;2304.00;;;;;;5033653;28;20012;-72
2023/04/20 00:47:32;;;;;;;;;;;308.10;2304.00;;;;;;5033154;28;19944;-71
2023/04/20 00:49:58;;;;;;;;;;;308.10;2304.00;;;;;;5032922;28;19905;-72
2023/04/20 00:52:23;;;;;;;;;;;308.10;2304.00;;;;;;5033291;28;20417;-72
2023/04/20 00:54:49;;;;;;;;;;;308.10;2304.00;;;;;;5032734;28;19948;-72
2023/04/20 00:57:17;;;;;;;;;;;308.10;2304.00;;;;;;5032643;28;19913;-72
2023/04/20 00:59:42;;;;;;;;;;;308.10;2304.00;;;;;;5030053;28;19912;-72
2023/04/20 01:02:08;;;;;;;;;;;308.10;2304.00;;;;;;5032956;28;19909;-72
2023/04/20 01:04:35;;;;;;;;;;;308.10;2304.00;;;;;;5032908;28;19909;-75
2023/04/20 01:07:01;;;;;;;;;;;308.10;2304.00;;;;;;5032352;28;20072;-72
2023/04/20 01:09:26;;;;;;;;;;;308.00;2304.00;;;;;;5032597;28;20108;-71
2023/04/20 01:11:52;;;;;;;;;;;308.00;2304.00;;;;;;5032444;28;20288;-72
2023/04/20 01:14:17;;;;;;;;;;;308.10;2304.00;;;;;;5032327;28;20038;-72
2023/04/20 01:16:43;;;;;;;;;;;308.00;2304.00;;;;;;5032209;28;19957;-71
2023/04/20 01:19:09;;;;;;;;;;;308.00;2304.00;;;;;;5032524;28;19912;-72
2023/04/20 01:21:35;;;;;;;;;;;308.10;2304.00;;;;;;5032489;28;19905;-72
2023/04/20 01:24:00;;;;;;;;;;;308.10;2304.00;;;;;;5032355;28;19906;-71
2023/04/20 01:26:26;;;;;;;;;;;308.10;2304.00;;;;;;5032430;28;20388;-72
2023/04/20 01:28:51;;;;;;;;;;;308.00;2304.00;;;;;;5032226;28;19912;-71
2023/04/20 01:31:17;;;;;;;;;;;308.00;2304.00;;;;;;5032080;28;19917;-72
2023/04/20 01:33:42;;;;;;;;;;;308.00;2304.00;;;;;;5032153;28;19909;-72
2023/04/20 01:36:09;;;;;;;;;;;308.00;2304.00;;;;;;5032127;28;19962;-71
2023/04/20 01:38:35;;;;;;;;;;;307.90;2304.00;;;;;;5032227;28;19905;-72
2023/04/20 01:41:03;;;;;;;;;;;307.90;2304.00;;;;;;5032165;28;19913;-71
2023/04/20 01:43:28;;;;;;;;;;;307.90;2304.00;;;;;;5032746;28;19905;-71
2023/04/20 01:45:54;;;;;;;;;;;308.00;2304.00;;;;;;5036289;28;19995;-76
2023/04/20 01:48:20;;;;;;;;;;;307.90;2304.00;;;;;;5036310;28;19905;-72
2023/04/20 01:50:45;;;;;;;;;;;307.90;2304.00;;;;;;5035916;28;19905;-71
2023/04/20 01:53:12;;;;;;;;;;;307.90;2304.00;;;;;;5036208;28;19912;-72
2023/04/20 01:55:38;;;;;;;;;;;307.80;2304.00;;;;;;5036193;28;19963;-71
2023/04/20 01:58:03;;;;;;;;;;;307.90;2304.00;;;;;;5036477;28;19999;-72
2023/04/20 02:00:29;;;;;;;;;;;307.90;2304.00;;;;;;5035897;28;19995;-72
2023/04/20 02:02:54;;;;;;;;;;;307.90;2304.00;;;;;;5036110;28;19909;-71
2023/04/20 02:05:20;;;;;;;;;;;307.90;2304.00;;;;;;5035894;28;19905;-71
2023/04/20 02:07:45;;;;;;;;;;;307.90;2304.00;;;;;;5035689;28;20035;-72
2023/04/20 02:10:11;;;;;;;;;;;307.90;2304.00;;;;;;5035817;28;19905;-73
2023/04/20 02:12:37;;;;;;;;;;;307.90;2304.00;;;;;;5035884;28;19909;-73
2023/04/20 02:15:04;;;;;;;;;;;307.90;2304.00;;;;;;5035750;28;19905;-72
2023/04/20 02:17:31;;;;;;;;;;;307.90;2304.00;;;;;;5033050;28;19983;-77
2023/04/20 02:19:57;;;;;;;;;;;307.80;2304.00;;;;;;5035684;28;19909;-72
2023/04/20 02:22:22;;;;;;;;;;;307.80;2304.00;;;;;;5035620;28;19912;-71
2023/04/20 02:24:48;;;;;;;;;;;307.80;2304.00;;;;;;5035620;28;19911;-71
2023/04/20 02:27:14;;;;;;;;;;;307.90;2304.00;;;;;;5035591;28;19905;-71
2023/04/20 02:29:40;;;;;;;;;;;307.90;2304.00;;;;;;5035522;28;20319;-72
2023/04/20 02:32:06;;;;;;;;;;;307.80;2304.00;;;;;;5034940;28;19917;-75
2023/04/20 02:34:32;;;;;;;;;;;307.80;2304.00;;;;;;5035318;28;19913;-76
2023/04/20 02:36:57;;;;;;;;;;;307.80;2304.00;;;;;;5035178;28;19968;-72
2023/04/20 02:39:23;;;;;;;;;;;307.80;2304.00;;;;;;5035273;28;19948;-71
2023/04/20 02:41:49;;;;;;;;;;;307.80;2304.00;;;;;;5035141;28;19905;-71
2023/04/20 02:44:14;;;;;;;;;;;307.70;2304.00;;;;;;5035201;28;19905;-71
2023/04/20 02:46:40;;;;;;;;;;;307.80;2304.00;;;;;;5035031;28;19905;-71
2023/04/20 02:49:06;;;;;;;;;;;307.70;2304.00;;;;;;5035047;28;20038;-71
2023/04/20 02:51:31;;;;;;;;;;;307.70;2304.00;;;;;;5034921;28;20047;-71
2023/04/20 02:53:57;;;;;;;;;;;307.70;2304.00;;;;;;5034679;28;20373;-71
2023/04/20 02:56:22;;;;;;;;;;;307.60;2304.00;;;;;;5034681;28;19913;-72
2023/04/20 02:58:50;;;;;;;;;;;307.50;2304.00;;;;;;5034710;28;19912;-72
2023/04/20 03:01:16;;;;;;;;;;;307.40;2304.00;;;;;;5034761;28;19908;-71
2023/04/20 03:03:42;;;;;;;;;;;307.40;2304.00;;;;;;5034719;28;20429;-71
2023/04/20 03:06:07;;;;;;;;;;;307.30;2304.00;;;;;;5034565;28;19905;-71
2023/04/20 03:08:33;;;;;;;;;;;307.30;2304.00;;;;;;5034699;28;19912;-75
2023/04/20 03:10:58;;;;;;;;;;;307.40;2304.00;;;;;;5034655;28;19944;-72
2023/04/20 03:13:24;;;;;;;;;;;307.60;2304.00;;;;;;5034795;28;19905;-72
2023/04/20 03:15:49;;;;;;;;;;;307.60;2304.00;;;;;;5034389;28;19911;-72
2023/04/20 03:18:15;;;;;;;;;;;307.60;2304.00;;;;;;5034515;28;19951;-73
2023/04/20 03:20:40;;;;;;;;;;;307.40;2304.00;;;;;;5034656;28;19958;-72
2023/04/20 03:23:06;;;;;;;;;;;307.20;2304.00;;;;;;5033168;28;19949;-72
2023/04/20 03:25:31;;;;;;;;;;;307.30;2304.00;;;;;;5034334;28;19905;-71
2023/04/20 03:27:58;;;;;;;;;;;307.20;2304.00;;;;;;5034311;28;19952;-71
2023/04/20 03:30:23;;;;;;;;;;;282.50;2278.40;;;;;;5034193;28;20395;-71
2023/04/20 03:32:49;;;;;;;;;;;282.50;2278.40;;;;;;5034061;28;19929;-71
2023/04/20 03:35:16;;;;;;;;;;;282.50;2278.40;;;;;;5034234;28;19909;-72
2023/04/20 03:37:42;;;;;;;;;;;282.50;2278.40;;;;;;5034072;28;19912;-71
2023/04/20 03:40:08;;;;;;;;;;;282.40;2278.40;;;;;;5034296;28;20449;-72
2023/04/20 03:42:33;;;;;;;;;;;282.40;2278.40;;;;;;5034098;28;19988;-71
2023/04/20 03:44:59;;;;;;;;;;;282.40;2278.40;;;;;;5034096;28;19995;-71
2023/04/20 03:47:25;;;;;;;;;;;282.30;2278.40;;;;;;5033973;28;19912;-72
2023/04/20 03:49:50;;;;;;;;;;;282.30;2278.40;;;;;;5033809;28;19913;-71
2023/04/20 03:52:16;;;;;;;;;;;282.30;2278.40;;;;;;5031072;28;19959;-71
2023/04/20 03:54:41;;;;;;;;;;;282.30;2278.40;;;;;;5028538;28;19913;-72
2023/04/20 03:57:07;;;;;;;;;;;282.20;2278.40;;;;;;5041539;28;20012;-71
2023/04/20 03:59:32;;;;;;;;;;;282.20;2278.40;;;;;;5037698;28;20357;-71
2023/04/20 04:01:58;;;;;;;;;;;282.20;2278.40;;;;;;5030264;28;20246;-71
2023/04/20 04:04:24;;;;;;;;;;;282.10;2278.40;;;;;;5035293;28;19938;-71
2023/04/20 04:06:50;;;;;;;;;;;282.10;2278.40;;;;;;5036566;28;20325;-71
2023/04/20 04:09:16;;;;;;;;;;;282.00;2278.40;;;;;;5036846;28;20004;-71
2023/04/20 04:11:41;;;;;;;;;;;282.10;2278.40;;;;;;5044571;28;19904;-71
2023/04/20 04:14:07;;;;;;;;;;;282.10;2278.40;;;;;;5035168;28;19985;-71
2023/04/20 04:16:32;;;;;;;;;;;282.10;2278.40;;;;;;5036352;28;19963;-71
2023/04/20 04:18:58;;;;;;;;;;;282.20;2278.40;;;;;;5036384;28;19911;-75
2023/04/20 04:21:23;;;;;;;;;;;282.10;2278.40;;;;;;5045686;28;19905;-71
2023/04/20 04:23:49;;;;;;;;;;;282.00;2278.40;;;;;;5024763;28;20012;-74
2023/04/20 04:26:16;;;;;;;;;;;282.20;2278.40;;;;;;5034367;28;20313;-73
2023/04/20 04:28:44;;;;;;;;;;;282.20;2278.40;;;;;;5028682;28;19912;-71
2023/04/20 04:31:11;;;;;;;;;;;282.30;2278.40;;;;;;5030454;28;19963;-72
2023/04/20 04:33:36;;;;;;;;;;;282.50;2278.40;;;;;;5024854;28;19979;-73
2023/04/20 04:36:02;;;;;;;;;;;307.20;2304.00;;;;;;5023748;28;20302;-73
2023/04/20 04:38:28;;;;;;;;;;;307.20;2304.00;;;;;;5038343;28;19920;-72
2023/04/20 04:40:55;;;;;;;;;;;282.50;2278.40;;;;;;5033958;28;19905;-73
2023/04/20 04:43:21;;;;;;;;;;;282.40;2278.40;;;;;;5035097;28;20000;-71
2023/04/20 04:45:46;;;;;;;;;;;282.40;2278.40;;;;;;5030255;28;20322;-74
2023/04/20 04:48:12;;;;;;;;;;;282.40;2278.40;;;;;;5033791;28;19905;-72
2023/04/20 04:50:38;;;;;;;;;;;282.50;2278.40;;;;;;5031236;28;19915;-72
2023/04/20 04:53:03;;;;;;;;;;;282.50;2278.40;;;;;;5033099;28;19905;-72
2023/04/20 04:55:29;;;;;;;;;;;282.50;2278.40;;;;;;5034240;28;20014;-72
2023/04/20 04:57:56;;;;;;;;;;;282.40;2278.40;;;;;;5033724;28;20011;-72
2023/04/20 05:00:22;;;;;;;;;;;282.40;2278.40;;;;;;5033721;28;19912;-70
2023/04/20 05:02:47;;;;;;;;;;;282.20;2278.40;;;;;;5033635;28;20372;-73
2023/04/20 05:05:13;;;;;;;;;;;282.30;2278.40;;;;;;5033830;28;19911;-72
2023/04/20 05:07:39;;;;;;;;;;;282.40;2278.40;;;;;;5033569;28;19931;-72
2023/04/20 05:10:05;;;;;;;;;;;282.40;2278.40;;;;;;5033576;28;20268;-75
2023/04/20 05:12:31;;;;;;;;;;;282.50;2278.40;;;;;;5033535;28;19905;-73
2023/04/20 05:14:56;;;;;;;;;;;282.40;2278.40;;;;;;5033943;28;19912;-76
2023/04/20 05:17:22;;;;;;;;;;;282.50;2278.40;;;;;;5033399;28;20067;-72
2023/04/20 05:19:47;;;;;;;;;;;307.20;2304.00;;;;;;5033690;28;20003;-72
2023/04/20 05:22:13;;;;;;;;;;;282.50;2278.40;;;;;;5033437;28;20258;-72
2023/04/20 05:24:39;;;;;;;;;;;282.50;2278.40;;;;;;5033641;28;20043;-71
2023/04/20 05:27:04;;;;;;;;;;;282.50;2278.40;;;;;;5033464;28;20368;-71
2023/04/20 05:29:31;;;;;;;;;;;282.40;2278.40;;;;;;5033513;28;19905;-72
2023/04/20 05:31:56;;;;;;;;;;;282.40;2278.40;;;;;;5033291;28;19924;-72
2023/04/20 05:34:22;;;;;;;;;;;282.40;2278.40;;;;;;5034206;28;19995;-74
2023/04/20 05:36:48;;;;;;;;;;;282.40;2278.40;;;;;;5033806;28;19970;-73
2023/04/20 05:39:13;;;;;;;;;;;282.50;2278.40;;;;;;5033388;28;20424;-72
2023/04/20 05:41:39;;;;;;;;;;;307.20;2304.00;;;;;;5033279;28;20380;-71
2023/04/20 05:44:04;;;;;;;;;;;307.20;2304.00;;;;;;5033539;28;19947;-72
2023/04/20 05:46:30;;;;;;;;;;;307.30;2304.00;;;;;;5033149;28;19945;-71
2023/04/20 05:48:56;;;;;;;;;;;307.40;2304.00;;;;;;5033662;28;19943;-71
2023/04/20 05:51:21;;;;;;;;;;;307.60;2304.00;;;;;;5033193;28;19958;-70
2023/04/20 05:53:47;;;;;;;;;;;307.70;2304.00;;;;;;5031392;28;20179;-72
2023/04/20 05:56:13;;;;;;;;;;;307.70;2304.00;;;;;;5031171;28;19917;-70
2023/04/20 05:58:39;;;;;;;;;;;307.70;2304.00;;;;;;5031292;28;19909;-73
2023/04/20 06:01:06;;;;;;;;;;;307.90;2304.00;;;;;;5030982;28;19911;-71
2023/04/20 06:03:31;;;;;;;;;;;308.10;2304.00;;;;;;5031276;28;19949;-71
2023/04/20 06:05:57;;;;;;;;;;;308.10;2304.00;;;;;;5031216;28;20339;-71
2023/04/20 06:08:22;;;;;;;;;;;332.80;2329.60;;;;;;5030987;28;19905;-70
2023/04/20 06:10:51;;;;;;;;;;;332.80;2329.60;;;;;;5033011;28;19905;-71
2023/04/20 06:13:17;;;;;;;;;;;332.90;2329.60;;;;;;5033289;28;19905;-70
2023/04/20 06:15:42;;;;;;;;;;;332.90;2329.60;;;;;;5033101;28;19908;-71
2023/04/20 06:18:08;;;;;;;;;;;333.00;2329.60;;;;;;5033151;28;20143;-70
2023/04/20 06:20:33;;;;;;;;;;;333.10;2329.60;;;;;;5032998;28;19905;-72
2023/04/20 06:22:59;;;;;;;;;;;333.20;2329.60;;;;;;5033133;28;19928;-70
2023/04/20 06:25:25;;;;;;;;;;;333.20;2329.60;;;;;;5032895;28;20003;-70
2023/04/20 06:27:50;;;;;;;;;;;333.30;2329.60;;;;;;5033034;28;20308;-71
2023/04/20 06:30:16;;;;;;;;;;;333.40;2329.60;;;;;;5034388;28;19996;-70
2023/04/20 06:32:41;;;;;;;;;;;333.50;2329.60;;;;;;5036500;28;19960;-71
2023/04/20 06:35:07;;;;;;;;;;;333.60;2329.60;;;;;;5036752;28;19916;-71
2023/04/20 06:37:35;;;;;;;;;;;358.40;2329.60;;;;;;5035014;28;19913;-71
2023/04/20 06:40:06;;;;;;;;;;;358.40;2329.60;;;;;;5036393;28;19991;-71
2023/04/20 06:42:32;;;;;;;;;;;358.40;2329.60;;;;;;5036518;28;19905;-72
2023/04/20 06:44:57;;;;;;;;;;;358.60;2329.60;;;;;;5036392;28;20373;-71
2023/04/20 06:47:30;;;;;;;;;;;358.70;2329.60;;;;;;5036389;28;19905;-71
2023/04/20 06:49:56;;;;;;;;;;;358.80;2329.60;;;;;;5036172;28;19912;-71
2023/04/20 06:52:22;;;;;;;;;;;358.90;2329.60;;;;;;5036457;28;19912;-72
2023/04/20 06:54:48;;;;;;;;;;;359.00;2329.60;;;;;;5036118;28;19999;-71
2023/04/20 06:57:13;;;;;;;;;;;359.10;2329.60;;;;;;5036447;28;19999;-71
2023/04/20 06:59:39;;;;;;;;;;;359.20;2329.60;;;;;;5036021;28;19905;-71
2023/04/20 07:02:05;;;;;;;;;;;359.30;2329.60;;;;;;5036042;28;20277;-76
2023/04/20 07:04:30;;;;;;;;;;;384.00;2329.60;;;;;;5036039;28;20296;-73
2023/04/20 07:06:56;;;;;;;;;;;384.10;2329.60;;;;;;5036083;28;19905;-72
2023/04/20 07:09:22;;;;;;;;;;;384.10;2329.60;;;;;;5035681;28;20008;-72
2023/04/20 07:11:47;;;;;;;;;;;384.30;2329.60;;;;;;5036022;28;19905;-76
2023/04/20 07:14:13;;;;;;;;;;;384.50;2329.60;;;;;;5035928;28;20015;-71
2023/04/20 07:16:38;;;;;;;;;;;384.60;2329.60;;;;;;5035777;28;20348;-71
2023/04/20 07:19:04;;;;;;;;;;;384.70;2329.60;;;;;;5035755;28;19959;-71
2023/04/20 07:21:30;;;;;;;;;;;384.90;2329.60;;;;;;5035868;28;19905;-72
2023/04/20 07:23:57;;;;;;;;;;;409.60;2355.20;;;;;;5035536;28;20073;-76
2023/04/20 07:26:23;;;;;;;;;;;409.70;2355.20;;;;;;5035894;28;19913;-72
2023/04/20 07:28:50;;;;;;;;;;;409.90;2355.20;;;;;;5035466;28;19905;-74
2023/04/20 07:31:15;;;;;;;;;;;410.00;2355.20;;;;;;5035309;28;19912;-75
2023/04/20 07:33:41;;;;;;;;;;;410.00;2355.20;;;;;;5035342;28;19909;-73
2023/04/20 07:36:07;;;;;;;;;;;410.20;2355.20;;;;;;5035384;28;19913;-73
2023/04/20 07:38:32;;;;;;;;;;;410.20;2355.20;;;;;;5035191;28;19911;-74
2023/04/20 07:40:58;;;;;;;;;;;410.40;2355.20;;;;;;5035451;28;19909;-76
2023/04/20 07:43:23;;;;;;;;;;;410.30;2355.20;;;;;;5034258;28;20086;-76
2023/04/20 07:45:49;;;;;;;;;;;410.40;2355.20;;;;;;5035300;28;19905;-72
2023/04/20 07:48:14;;;;;;;;;;;410.50;2355.20;;;;;;5035400;28;19906;-73
2023/04/20 07:50:40;;;;;;;;;;;435.20;2355.20;;;;;;5035279;28;20300;-74
2023/04/20 07:53:07;;;;;;;;;;;435.30;2355.20;;;;;;5035075;28;20324;-73
2023/04/20 07:55:32;;;;;;;;;;;435.40;2355.20;;;;;;5034970;28;19949;-77
2023/04/20 07:57:59;;;;;;;;;;;435.40;2355.20;;;;;;5034953;28;20324;-77
2023/04/20 08:00:25;;;;;;;;;;;435.50;2355.20;;;;;;5035186;28;19905;-76
2023/04/20 08:02:51;;;;;;;;;;;435.40;2355.20;;;;;;5034918;28;19978;-73
2023/04/20 08:05:17;;;;;;;;;;;435.50;2355.20;;;;;;5035233;28;19905;-76
2023/04/20 08:07:42;;;;;;;;;;;435.60;2355.20;;;;;;5034802;28;20400;-73
2023/04/20 08:10:08;;;;;;;;;;;435.60;2355.20;;;;;;5034757;28;19912;-74
2023/04/20 08:12:34;;;;;;;;;;;435.70;2355.20;;;;;;5034565;28;19909;-76
2023/04/20 08:15:03;;;;;;;;;;;435.80;2355.20;;;;;;5035010;28;20019;-76
2023/04/20 08:17:28;;;;;;;;;;;435.90;2355.20;;;;;;5034494;28;19917;-73
2023/04/20 08:19:54;;;;;;;;;;;435.90;2355.20;;;;;;5034944;28;19905;-73
2023/04/20 08:22:20;;;;;;;;;;;435.90;2355.20;;;;;;5034577;28;19959;-72
2023/04/20 08:24:46;;;;;;;;;;;435.90;2355.20;;;;;;5034500;28;19927;-72
2023/04/20 08:27:12;;;;;;;;;;;436.00;2355.20;;;;;;5034344;28;19905;-72
2023/04/20 08:29:38;;;;;;;;;;;436.10;2355.20;;;;;;5034628;28;19970;-73
2023/04/20 08:32:04;;;;;;;;;;;436.10;2355.20;;;;;;5034026;28;19917;-73
2023/04/20 08:34:29;;;;;;;;;;;460.80;2380.80;;;;;;5034561;28;20308;-74
2023/04/20 08:36:55;;;;;;;;;;;460.80;2380.80;;;;;;5034131;28;20272;-72
2023/04/20 08:39:22;;;;;;;;;;;460.90;2380.80;;;;;;5034193;28;19912;-75
2023/04/20 08:41:52;;;;;;;;;;;460.90;2380.80;;;;;;5034147;28;19921;-73
2023/04/20 08:44:18;;;;;;;;;;;461.00;2380.80;;;;;;5033248;28;20356;-74
2023/04/20 08:46:45;;;;;;;;;;;461.10;2380.80;;;;;;5034188;28;19909;-74
2023/04/20 08:49:11;;;;;;;;;;;461.00;2227.20;;;;;;5032934;28;20285;-72
2023/04/20 08:51:38;;;;;;;;;;;461.10;2380.80;;;;;;5033690;28;20419;-73
2023/04/20 08:54:06;;;;;;;;;;;461.20;2252.80;;;;;;5033609;28;19905;-76
2023/04/20 08:56:36;;;;;;;;;;;461.40;2227.20;;;;;;5020807;28;19958;-74
2023/04/20 08:59:07;;;;;;;;;;;461.40;2176.00;;;;;;5033735;28;19909;-76
2023/04/20 09:01:34;;;;;;;;;;;461.40;2048.00;;;;;;5032797;28;19963;-73
2023/04/20 09:04:00;;;;;;;;;;;461.40;2176.00;;;;;;5020949;28;20424;-73
2023/04/20 09:06:25;;;;;;;;;;;461.50;2124.80;;;;;;5033851;28;19905;-72
2023/04/20 09:08:51;;;;;;;;;;;461.70;2099.20;;;;;;5033645;28;20337;-73
2023/04/20 09:11:21;;;;;;;;;;;461.70;2099.20;;;;;;5033385;28;19905;-72
2023/04/20 09:14:16;;;;;;;;;;;486.40;2176.00;;;;;;5032265;28;20281;-72
2023/04/20 09:16:49;;;;;;;;;;;486.40;2048.00;;;;;;5051392;28;20296;-73
2023/04/20 09:19:20;;;;;;;;;;;486.40;2048.00;;;;;;5051438;28;20320;-71
2023/04/20 09:21:49;;;;;;;;;;;486.60;1971.20;;;;;;5050416;28;20382;-70
2023/04/20 09:24:15;;;;;;;;;;;486.60;1920.00;;;;;;5053304;28;20410;-71
2023/04/20 09:26:40;;;;;;;;;;;486.70;1945.60;;;;;;5056055;28;19956;-71
2023/04/20 09:29:20;;;;;;;;;;;486.80;1920.00;;;;;;5055891;28;19922;-71
2023/04/20 09:31:46;;;;;;;;;;;486.70;1843.20;;;;;;5050736;28;20297;-72
2023/04/20 09:34:12;;;;;;;;;;;486.80;1894.40;;;;;;5050585;28;19913;-71
2023/04/20 09:36:39;;;;;;;;;;;486.90;1740.80;;;;;;5060451;28;19921;-71
2023/04/20 09:39:08;;;;;;;;;;;487.10;1740.80;;;;;;5054373;28;20278;-72
2023/04/20 09:41:34;;;;;;;;;;;487.30;1689.60;;;;;;5053430;28;19905;-72
2023/04/20 09:44:00;;;;;;;;;;;487.30;1664.00;;;;;;5052537;28;20379;-71
2023/04/20 09:46:27;;;;;;;;;;;512.00;1638.40;;;;;;5050543;28;19912;-71
2023/04/20 09:48:53;;;;;;;;;;;512.20;1638.40;;;;;;5050602;28;19904;-71
2023/04/20 09:51:19;;;;;;;;;;;512.30;1664.00;;;;;;5053091;28;19913;-71
2023/04/20 09:53:45;;;;;;;;;;;512.40;1689.60;;;;;;5037979;28;19909;-71
2023/04/20 09:56:11;;;;;;;;;;;512.70;1766.40;;;;;;5041508;28;20379;-71
2023/04/20 09:58:37;;;;;;;;;;;512.80;1689.60;;;;;;5032901;28;19959;-71
2023/04/20 10:01:02;;;;;;;;;;;512.90;1715.20;;;;;;5025145;28;19906;-72
2023/04/20 10:03:28;;;;;;;;;;;512.60;1689.60;;;;;;5026552;28;19919;-72
2023/04/20 10:05:57;;;;;;;;;;;537.60;1689.60;;;;;;5032541;28;19905;-71
2023/04/20 10:08:23;;;;;;;;;;;537.80;1612.80;;;;;;5024836;28;19905;-71
2023/04/20 10:10:49;;;;;;;;;;;538.00;1612.80;;;;;;5031113;28;19969;-71
2023/04/20 10:13:17;;;;;;;;;;;512.70;1561.60;;;;;;5025034;28;19906;-71
2023/04/20 10:15:43;;;;;;;;;;;512.90;1561.60;;;;;;5039663;28;19911;-72
2023/04/20 10:18:18;;;;;;;;;;;537.80;1587.20;;;;;;5038510;28;19913;-70
2023/04/20 10:20:44;;;;;;;;;;;538.10;1561.60;;;;;;5035348;28;19916;-70
2023/04/20 10:23:10;;;;;;;;;;;538.20;1561.60;;;;;;5027158;28;20321;-71
2023/04/20 10:25:36;;;;;;;;;;;538.40;1561.60;;;;;;5032773;28;19940;-71
2023/04/20 10:28:04;;;;;;;;;;;538.40;1510.40;;;;;;5034750;28;20007;-71
2023/04/20 10:30:30;;;;;;;;;;;563.20;1536.00;;;;;;5032646;28;19936;-71
2023/04/20 10:33:10;;;;;;;;;;;563.50;1536.00;;;;;;5030394;28;19928;-71
2023/04/20 10:35:49;;;;;;;;;;;563.70;1510.40;;;;;;5034765;28;19909;-71
2023/04/20 10:38:15;;;;;;;;;;;563.50;1459.20;;;;;;5023701;28;19913;-71
2023/04/20 10:40:41;;;;;;;;;;;538.50;1433.60;;;;;;5039138;28;19905;-72
2023/04/20 10:43:16;;;;;;;;;;;563.40;1433.60;;;;;;5031384;28;20375;-71
2023/04/20 10:45:42;;;;;;;;;;;563.40;1459.20;;;;;;5036034;28;19911;-70
2023/04/20 10:48:08;;;;;;;;;;;563.60;1433.60;;;;;;5027776;28;19909;-70
2023/04/20 10:50:34;;;;;;;;;;;563.60;1408.00;;;;;;5030435;28;20371;-70
2023/04/20 10:52:59;;;;;;;;;;;563.50;1459.20;;;;;;5033696;28;19905;-71
2023/04/20 10:55:25;;;;;;;;;;;563.50;1433.60;;;;;;5032513;28;19905;-70
2023/04/20 10:57:51;;;;;;;;;;;563.70;1408.00;;;;;;5031565;28;20404;-70
2023/04/20 11:00:17;;;;;;;;;;;563.70;1382.40;;;;;;5031754;28;19955;-70
2023/04/20 11:02:47;;;;;;;;;;;563.90;1408.00;;;;;;5037349;28;19975;-72
2023/04/20 11:05:13;;;;;;;;;;;564.10;1382.40;;;;;;5037683;28;19912;-70
2023/04/20 11:07:58;;;;;;;;;;;564.10;1382.40;;;;;;5033709;28;20273;-71
2023/04/20 11:10:36;;;;;;;;;;;588.90;1356.80;;;;;;5037194;28;19909;-70
2023/04/20 11:13:01;;;;;;;;;;;563.60;1382.40;;;;;;5029208;28;19905;-71
2023/04/20 11:15:36;;;;;;;;;;;538.30;1382.40;;;;;;5032950;28;19905;-70
2023/04/20 11:18:05;;;;;;;;;;;563.60;1433.60;;;;;;5032461;28;20358;-70
2023/04/20 11:20:31;;;;;;;;;;;563.80;1459.20;;;;;;5035107;28;20361;-71
2023/04/20 11:22:58;;;;;;;;;;;563.90;1433.60;;;;;;5040367;28;19912;-72
2023/04/20 11:25:24;;;;;;;;;;;564.10;1408.00;;;;;;5031644;28;19905;-71
2023/04/20 11:27:49;;;;;;;;;;;563.80;1408.00;;;;;;5033916;28;19913;-71
2023/04/20 11:30:15;;;;;;;;;;;588.80;1382.40;;;;;;5038639;28;19905;-70
2023/04/20 11:32:41;;;;;;;;;;;589.00;1356.80;;;;;;5038121;28;19928;-71
2023/04/20 11:35:08;;;;;;;;;;;589.20;1356.80;;;;;;5032507;28;20384;-72
2023/04/20 11:37:46;;;;;;;;;;;589.20;1356.80;;;;;;5035915;28;19920;-70
2023/04/20 11:40:13;;;;;;;;;;;588.90;1382.40;;;;;;5037125;28;20356;-70
2023/04/20 11:42:39;;;;;;;;;;;564.10;1433.60;;;;;;5031941;28;19905;-71
2023/04/20 11:45:05;;;;;;;;;;;589.00;1408.00;;;;;;5033740;28;19905;-72
2023/04/20 11:47:31;;;;;;;;;;;589.20;1382.40;;;;;;5038494;28;19940;-72
2023/04/20 11:49:56;;;;;;;;;;;589.00;1408.00;;;;;;5037012;28;19905;-71
2023/04/20 11:52:22;;;;;;;;;;;588.90;1433.60;;;;;;5032603;28;19905;-71
2023/04/20 11:54:48;;;;;;;;;;;588.90;1382.40;;;;;;5040369;28;19955;-71
2023/04/20 11:57:13;;;;;;;;;;;563.80;1408.00;;;;;;5041867;28;20385;-70
2023/04/20 11:59:41;;;;;;;;;;;563.30;1433.60;;;;;;5027200;28;19905;-71
2023/04/20 12:02:07;;;;;;;;;;;538.40;1433.60;;;;;;5027046;28;19985;-70
2023/04/20 12:04:33;;;;;;;;;;;537.80;1459.20;;;;;;5032819;28;19913;-72
2023/04/20 12:06:59;;;;;;;;;;;563.20;1433.60;;;;;;5034389;28;19905;-70
2023/04/20 12:09:25;;;;;;;;;;;563.60;1408.00;;;;;;5028283;28;19906;-71
2023/04/20 12:11:51;;;;;;;;;;;563.50;1408.00;;;;;;5029495;28;19904;-70
2023/04/20 12:14:16;;;;;;;;;;;563.60;1408.00;;;;;;5037394;28;20273;-70
2023/04/20 12:16:42;;;;;;;;;;;563.50;1408.00;;;;;;5030341;28;19956;-70
2023/04/20 12:19:08;;;;;;;;;;;563.70;1408.00;;;;;;5039044;28;20381;-71
2023/04/20 12:21:34;;;;;;;;;;;563.80;1408.00;;;;;;5031012;28;20379;-70
2023/04/20 12:23:59;;;;;;;;;;;564.10;1433.60;;;;;;5038939;28;19904;-71
2023/04/20 12:26:25;;;;;;;;;;;564.00;1382.40;;;;;;5038198;28;20360;-70
2023/04/20 12:28:51;;;;;;;;;;;563.50;1433.60;;;;;;5034298;28;19927;-70
2023/04/20 12:31:16;;;;;;;;;;;563.30;1433.60;;;;;;5035668;28;20026;-70
2023/04/20 12:33:43;;;;;;;;;;;538.40;1433.60;;;;;;5032562;28;19971;-70
2023/04/20 12:36:09;;;;;;;;;;;538.50;1459.20;;;;;;5035598;28;19913;-74
2023/04/20 12:38:35;;;;;;;;;;;563.70;1433.60;;;;;;5029631;28;19916;-70
2023/04/20 12:41:00;;;;;;;;;;;588.80;1433.60;;;;;;5037331;28;19909;-71
2023/04/20 12:43:27;;;;;;;;;;;589.10;1408.00;;;;;;5032400;28;19905;-74
2023/04/20 12:45:53;;;;;;;;;;;589.10;1382.40;;;;;;5033351;28;19912;-72
2023/04/20 12:48:18;;;;;;;;;;;563.60;1408.00;;;;;;5024804;28;19909;-70
2023/04/20 12:50:44;;;;;;;;;;;563.30;1433.60;;;;;;5023293;28;19905;-74
2023/04/20 12:53:09;;;;;;;;;;;538.40;1484.80;;;;;;5018938;28;19906;-72
2023/04/20 12:55:35;;;;;;;;;;;538.10;1484.80;;;;;;5033735;28;19904;-73
2023/04/20 12:58:01;;;;;;;;;;;563.40;1484.80;;;;;;5031664;28;19968;-71
2023/04/20 13:00:26;;;;;;;;;;;563.60;1459.20;;;;;;5038448;28;19909;-72
2023/04/20 13:02:52;;;;;;;;;;;538.50;1433.60;;;;;;5032690;28;19905;-72
2023/04/20 13:05:18;;;;;;;;;;;538.30;1433.60;;;;;;5035056;28;20472;-71
2023/04/20 13:07:44;;;;;;;;;;;538.00;1433.60;;;;;;5040149;28;19936;-75
2023/04/20 13:10:09;;;;;;;;;;;537.90;1484.80;;;;;;5031915;28;19995;-76
2023/04/20 13:12:35;;;;;;;;;;;538.30;1433.60;;;;;;5031919;28;20384;-70
2023/04/20 13:15:00;;;;;;;;;;;538.30;1433.60;;;;;;5029907;28;19909;-77
2023/04/20 13:17:26;;;;;;;;;;;537.90;1433.60;;;;;;5028593;28;19913;-73
2023/04/20 13:19:52;;;;;;;;;;;537.90;1459.20;;;;;;5030883;28;19912;-72
2023/04/20 13:22:17;;;;;;;;;;;538.50;1433.60;;;;;;5032740;28;20254;-72
2023/04/20 13:24:43;;;;;;;;;;;538.50;1408.00;;;;;;5024527;28;19959;-72
2023/04/20 13:27:09;;;;;;;;;;;538.40;1433.60;;;;;;5040384;28;19931;-72
2023/04/20 13:29:34;;;;;;;;;;;538.20;1433.60;;;;;;5037767;28;19905;-71
2023/04/20 13:32:00;;;;;;;;;;;538.10;1459.20;;;;;;5024680;28;19917;-72
2023/04/20 13:34:25;;;;;;;;;;;538.20;1484.80;;;;;;5027905;28;19917;-72
2023/04/20 13:36:51;;;;;;;;;;;538.10;1433.60;;;;;;5032156;28;19956;-75